Time;durP1;ratioP1;P1;durP2;ratioP2;P2;SDS_P1;SDS_P2;PMS_P1;PMS_P2;Temp;Humidity;BMP_temperature;BMP_pressure;BME280_temperature;BME280_humidity;BME280_pressure;Samples;Min_cycle;Max_cycle;Signal;HPM_P1;HPM_P2
2022/04/28 00:01:25;;;;;;;24.88;12.48;;;;;;;10.73;66.69;93122.38;4791425;29;20092;-90
2022/04/28 00:03:56;;;;;;;25.73;13.30;;;;;;;10.75;66.59;93123.69;4818117;29;20054;-91
2022/04/28 00:06:30;;;;;;;25.10;12.77;;;;;;;10.59;66.74;93112.50;4809021;29;20095;-91
2022/04/28 00:09:01;;;;;;;27.92;13.35;;;;;;;10.63;67.37;93126.63;4809907;29;20106;-91
2022/04/28 00:11:55;;;;;;;;;;;;;;;;;;;;;
2022/04/28 00:14:25;;;;;;;24.80;12.95;;;;;;;10.06;68.52;93064.31;4792367;29;20077;-92
2022/04/28 00:17:00;;;;;;;26.20;12.23;;;;;;;9.96;68.74;93071.16;4792559;29;20185;-92
2022/04/28 00:19:26;;;;;;;27.38;13.20;;;;;;;9.86;68.95;93071.22;4777424;29;20113;-91
2022/04/28 00:22:02;;;;;;;24.35;12.48;;;;;;;9.92;69.17;93091.06;4789120;29;20034;-91
2022/04/28 00:24:32;;;;;;;24.20;13.05;;;;;;;9.72;69.34;93075.44;4794484;29;20175;-91
2022/04/28 00:27:08;;;;;;;;;;;;;;;;;;;;;
2022/04/28 00:29:39;;;;;;;26.98;13.25;;;;;;;9.79;69.89;93102.88;4808731;29;20065;-91
2022/04/28 00:32:12;;;;;;;24.10;12.02;;;;;;;9.67;70.17;93091.13;4810349;29;20125;-91
2022/04/28 00:34:40;;;;;;;26.30;13.35;;;;;;;9.70;70.76;93095.81;4779599;29;20066;-91
2022/04/28 00:37:19;;;;;;;23.75;12.57;;;;;;;9.45;70.93;93070.53;4800699;29;20031;-91
2022/04/28 00:39:54;;;;;;;26.10;13.05;;;;;;;9.64;71.07;93097.69;4792445;29;20046;-92
2022/04/28 00:42:24;;;;;;;25.98;13.30;;;;;;;9.62;71.13;93096.38;4791743;29;20046;-92
2022/04/28 00:44:57;;;;;;;24.30;13.07;;;;;;;9.63;71.00;93090.09;4806149;29;20046;-91
2022/04/28 00:50:38;;;;;;;26.17;13.25;;;;;;;9.52;71.43;93078.88;4795320;29;20109;-91
2022/04/28 00:53:11;;;;;;;26.13;13.57;;;;;;;9.66;70.93;93098.19;4809798;29;20069;-91
2022/04/28 00:55:43;;;;;;;30.38;13.32;;;;;;;9.58;70.69;93075.19;4811918;29;20093;-92
2022/04/28 00:58:15;;;;;;;26.55;13.38;;;;;;;9.66;70.63;93081.72;4762703;29;20065;-91
2022/04/28 01:01:04;;;;;;;28.77;13.48;;;;;;;9.60;69.84;93062.66;4790242;29;20049;-91
2022/04/28 01:03:36;;;;;;;26.50;13.20;;;;;;;9.83;69.76;93094.50;4789664;29;20043;-93
2022/04/28 01:06:05;;;;;;;25.75;13.48;;;;;;;9.57;70.01;93053.50;4792514;29;20051;-91
2022/04/28 01:08:33;;;;;;;27.45;12.93;;;;;;;9.65;70.10;93060.03;4804255;29;20038;-92
2022/04/28 01:11:03;;;;;;;32.00;12.93;;;;;;;9.68;69.80;93054.28;4809936;29;20050;-91
2022/04/28 01:13:37;;;;;;;28.50;12.73;;;;;;;9.84;69.93;93082.97;4793340;29;20118;-91
2022/04/28 01:16:21;;;;;;;23.73;11.43;;;;;;;9.70;70.20;93065.22;4778631;29;20179;-92
2022/04/28 01:18:47;;;;;;;27.58;12.73;;;;;;;9.82;70.34;93069.38;4793616;29;20038;-92
2022/04/28 01:21:16;;;;;;;28.45;13.05;;;;;;;9.87;69.85;93072.78;4793867;29;20073;-92
2022/04/28 01:23:43;;;;;;;27.88;13.93;;;;;;;10.03;69.86;93091.81;4808204;29;20091;-92
2022/04/28 01:26:13;;;;;;;27.13;13.82;;;;;;;10.14;69.37;93093.34;4809134;29;20509;-92
2022/04/28 01:28:43;;;;;;;27.65;13.40;;;;;;;9.95;68.96;93060.97;4808774;29;20037;-91
2022/04/28 01:31:24;;;;;;;29.27;13.65;;;;;;;9.99;68.87;93064.63;4810449;29;20042;-91
2022/04/28 01:34:05;;;;;;;;;;;;;;;;;;;;;
2022/04/28 01:36:47;;;;;;;28.40;13.90;;;;;;;10.00;69.14;93055.72;4809187;29;20053;-91
2022/04/28 01:39:20;;;;;;;26.05;12.57;;;;;;;10.02;68.50;93058.88;4793607;29;20768;-91
2022/04/28 01:41:59;;;;;;;25.25;12.57;;;;;;;10.07;68.21;93064.06;4795854;29;20058;-91
2022/04/28 01:44:31;;;;;;;28.13;12.73;;;;;;;10.06;68.71;93057.25;4793943;29;20659;-91
2022/04/28 01:47:02;;;;;;;26.20;13.38;;;;;;;10.32;68.14;93091.19;4808908;29;20049;-91
2022/04/28 01:49:48;;;;;;;26.40;12.60;;;;;;;10.24;68.37;93078.63;4824842;29;20046;-92
2022/04/28 01:55:34;;;;;;;28.50;13.52;;;;;;;10.25;68.06;93077.59;4825270;29;20054;-93
2022/04/28 01:58:22;;;;;;;25.60;12.57;;;;;;;10.23;67.78;93064.78;4789367;29;20050;-91
2022/04/28 02:01:22;;;;;;;27.20;13.77;;;;;;;10.37;68.10;93091.94;4798329;29;20058;-93
2022/04/28 02:04:01;;;;;;;31.33;13.32;;;;;;;10.39;68.34;93091.69;4821804;29;20035;-91
2022/04/28 02:06:32;;;;;;;28.02;13.75;;;;;;;10.19;68.44;93056.66;4818393;29;20488;-91
2022/04/28 02:09:06;;;;;;;27.98;12.95;;;;;;;10.31;67.90;93068.69;4799675;29;20099;-92
2022/04/28 02:11:51;;;;;;;28.42;13.52;;;;;;;10.23;68.57;93066.63;4810690;29;20046;-90
2022/04/28 02:14:35;;;;;;;23.85;12.93;;;;;;;10.28;68.32;93063.97;4796351;29;20141;-91
2022/04/28 02:17:45;;;;;;;24.30;12.52;;;;;;;10.18;68.55;93068.19;4733530;30;20056;-91
2022/04/28 02:20:12;;;;;;;26.25;13.20;;;;;;;10.29;68.44;93089.09;4798648;29;20076;-91
2022/04/28 02:22:50;;;;;;;27.40;13.32;;;;;;;10.16;68.55;93065.06;4794284;29;20050;-92
2022/04/28 02:25:24;;;;;;;25.75;13.13;;;;;;;10.26;68.53;93085.16;4810164;29;20046;-90
2022/04/28 02:27:56;;;;;;;27.15;13.10;;;;;;;10.06;69.44;93069.56;4809883;29;20153;-91
2022/04/28 02:30:34;;;;;;;26.13;12.75;;;;;;;10.26;69.36;93094.84;4805286;29;20031;-90
2022/04/28 02:33:13;;;;;;;27.27;13.23;;;;;;;10.01;69.18;93062.50;4791911;29;20183;-91
2022/04/28 02:35:48;;;;;;;26.85;12.55;;;;;;;9.98;69.44;93063.84;4786495;29;20054;-90
2022/04/28 02:38:14;;;;;;;30.23;12.70;;;;;;;10.33;69.57;93121.53;4816924;29;20099;-94
2022/04/28 02:40:42;;;;;;;26.58;12.60;;;;;;;10.11;69.38;93088.66;4815574;29;20026;-93
2022/04/28 02:43:31;;;;;;;;;;;;;;;;;;;;;
2022/04/28 02:46:35;;;;;;;24.85;12.10;;;;;;;10.09;69.64;93087.34;4820035;29;20050;-90
2022/04/28 02:49:11;;;;;;;24.73;13.20;;;;;;;9.99;69.94;93065.38;4800215;29;20046;-91
2022/04/28 02:51:42;;;;;;;25.10;12.75;;;;;;;9.94;70.08;93064.63;4793541;29;20114;-91
2022/04/28 02:54:14;;;;;;;28.55;13.10;;;;;;;10.06;69.81;93086.03;4808871;29;20034;-91
2022/04/28 02:56:48;;;;;;;31.48;12.98;;;;;;;9.92;69.75;93067.50;4808474;29;20046;-90
2022/04/28 02:59:21;;;;;;;26.63;12.30;;;;;;;10.20;69.47;93094.88;4808682;29;20452;-89
2022/04/28 03:01:57;;;;;;;27.80;13.52;;;;;;;9.98;69.32;93068.28;4828999;29;20560;-90
2022/04/28 03:04:51;;;;;;;26.42;12.90;;;;;;;10.12;69.47;93084.19;4806338;29;20022;-92
2022/04/28 03:13:19;;;;;;;26.63;12.82;;;;;;;10.08;69.74;93070.06;4822620;29;20054;-90
2022/04/28 03:16:00;;;;;;;25.38;12.43;;;;;;;10.26;69.59;93102.69;4790137;29;20051;-90
2022/04/28 03:18:54;;;;;;;28.55;13.13;;;;;;;10.22;69.51;93099.81;4792627;29;20515;-91
2022/04/28 03:21:27;;;;;;;27.00;13.30;;;;;;;9.97;69.32;93064.09;4806596;29;20050;-90
2022/04/28 03:24:01;;;;;;;26.77;12.73;;;;;;;10.19;68.97;93084.69;4807635;29;20043;-91
2022/04/28 03:26:37;;;;;;;26.25;12.70;;;;;;;10.39;69.19;93120.47;4802101;29;20046;-91
2022/04/28 03:29:13;;;;;;;27.35;13.18;;;;;;;10.36;69.08;93127.03;4792953;29;20038;-91
2022/04/28 03:31:41;;;;;;;26.88;12.75;;;;;;;10.03;69.05;93078.72;4822120;29;20074;-91
2022/04/28 03:34:19;;;;;;;26.63;12.73;;;;;;;10.01;69.32;93065.91;4809357;29;20050;-91
2022/04/28 03:36:52;;;;;;;31.83;13.25;;;;;;;10.19;69.59;93100.38;4789949;29;20051;-91
2022/04/28 03:39:46;;;;;;;27.40;12.95;;;;;;;10.25;69.49;93104.53;4777191;29;20047;-90
2022/04/28 03:42:17;;;;;;;29.15;13.32;;;;;;;9.92;69.42;93064.91;4788977;29;20142;-91
2022/04/28 03:44:48;;;;;;;31.52;14.43;;;;;;;10.27;69.72;93123.38;4789280;29;20038;-91
2022/04/28 03:47:19;;;;;;;31.58;13.23;;;;;;;10.10;69.63;93094.91;4775335;29;20047;-91
2022/04/28 03:49:50;;;;;;;30.10;13.57;;;;;;;10.06;70.10;93090.47;4777706;29;20054;-91
2022/04/28 03:52:19;;;;;;;29.88;13.88;;;;;;;10.08;69.76;93093.63;4792096;29;20050;-91
2022/04/28 03:54:47;;;;;;;32.70;12.98;;;;;;;9.84;70.12;93072.50;4779714;29;20472;-91
2022/04/28 03:57:13;;;;;;;31.38;13.15;;;;;;;9.83;70.66;93076.19;4798075;29;20062;-90
2022/04/28 03:59:46;;;;;;;26.85;12.10;;;;;;;9.79;70.74;93076.72;4795030;29;20054;-90
2022/04/28 04:02:35;;;;;;;34.08;13.55;;;;;;;9.84;71.35;93096.84;4776377;29;1277380;-91
2022/04/28 04:05:05;;;;;;;29.15;13.30;;;;;;;9.69;71.34;93075.97;4803259;29;20046;-91
2022/04/28 04:07:38;;;;;;;29.75;13.40;;;;;;;9.84;71.17;93091.63;4801447;29;20086;-91
2022/04/28 04:10:25;;;;;;;27.42;13.80;;;;;;;9.67;71.51;93073.59;4804396;29;20123;-91
2022/04/28 04:13:20;;;;;;;31.73;13.90;;;;;;;10.03;71.70;93117.97;4781738;29;20137;-91
2022/04/28 04:16:05;;;;;;;35.15;14.50;;;;;;;9.73;72.20;93093.47;4803941;29;20042;-91
2022/04/28 04:18:37;;;;;;;28.90;14.05;;;;;;;9.56;71.94;93069.44;4828980;29;20068;-92
2022/04/28 04:21:20;;;;;;;;;;;;;;;;;;;;;
2022/04/28 04:24:00;;;;;;;30.85;13.95;;;;;;;9.76;72.44;93113.06;4810971;29;20057;-90
2022/04/28 04:26:43;;;;;;;31.70;14.23;;;;;;;9.76;72.47;93110.47;4797044;29;20047;-91
2022/04/28 04:29:12;;;;;;;28.40;14.07;;;;;;;9.56;72.58;93061.63;4809251;29;20045;-90
2022/04/28 04:32:17;;;;;;;31.67;14.00;;;;;;;9.69;72.72;93107.34;4779564;29;20034;-91
2022/04/28 04:34:54;;;;;;;33.63;14.32;;;;;;;9.84;72.33;93111.72;4767074;29;20047;-92
2022/04/28 04:37:50;;;;;;;33.20;14.82;;;;;;;9.66;72.52;93098.19;4794957;29;20188;-88
2022/04/28 04:44:13;;;;;;;38.45;15.20;;;;;;;9.84;72.37;93124.81;4827977;29;20571;-87
2022/04/28 04:46:42;;;;;;;33.80;14.60;;;;;;;9.88;72.74;93115.38;4778263;29;20050;-88
2022/04/28 04:53:04;;;;;;;30.83;14.27;;;;;;;10.06;72.48;93148.81;4811941;29;20142;-88
2022/04/28 04:58:56;;;;;;;30.83;13.83;;;;;;;10.04;72.76;93143.06;4818192;29;20069;-88
2022/04/28 05:05:19;;;;;;;;;;;;;;;10.17;72.73;93155.56;4826955;29;20061;-88
2022/04/28 05:08:04;;;;;;;29.23;12.90;;;;;;;10.09;73.04;93148.28;4826251;29;19932;-88
2022/04/28 05:10:32;;;;;;;29.13;12.57;;;;;;;10.09;73.58;93147.50;4793023;29;20043;-88
2022/04/28 05:13:02;;;;;;;24.40;12.35;;;;;;;10.10;73.83;93143.84;4799619;29;20055;-88
2022/04/28 05:16:10;;;;;;;26.17;11.90;;;;;;;10.23;73.35;93160.81;4814274;29;20547;-87
2022/04/28 05:27:07;;;;;;;28.02;12.07;;;;;;;10.26;73.25;93160.28;4808305;29;20218;-87
2022/04/28 05:33:45;;;;;;;22.23;10.68;;;;;;;10.45;72.84;93176.19;4808620;29;20164;-87
2022/04/28 06:08:22;;;;;;;23.75;10.77;;;;;;;10.95;70.75;93200.59;4844975;29;20102;-87
2022/04/28 06:11:20;;;;;;;23.95;11.95;;;;;;;11.08;70.21;93207.84;4813441;29;20399;-87
2022/04/28 06:17:46;;;;;;;30.77;10.75;;;;;;;11.25;69.59;93200.38;4866525;29;20032;-86
2022/04/28 06:24:10;;;;;;;24.35;11.02;;;;;;;11.44;68.26;93200.53;4850323;29;20127;-87
2022/04/28 06:30:49;;;;;;;25.80;11.35;;;;;;;11.83;66.60;93204.16;4844027;29;20093;-87
2022/04/28 06:37:29;;;;;;;19.65;9.88;;;;;;;13.61;59.60;93205.00;4843710;29;20070;-86
2022/04/28 06:47:51;;;;;;;19.70;9.23;;;;;;;14.46;55.77;93211.72;4843203;29;20069;-89
2022/04/28 06:50:35;;;;;;;17.35;8.82;;;;;;;16.02;50.22;93212.38;4816701;29;20057;-89
2022/04/28 07:05:13;;;;;;;20.15;7.72;;;;;;;16.65;45.71;93213.13;4843167;29;20102;-88
2022/04/28 07:07:41;;;;;;;18.45;8.20;;;;;;;16.21;46.55;93198.97;4781295;29;20136;-89
2022/04/28 07:10:07;;;;;;;20.13;7.57;;;;;;;16.44;45.40;93210.25;4796794;29;20046;-89
2022/04/28 07:12:42;;;;;;;15.15;7.57;;;;;;;16.88;45.92;93214.94;4812299;29;20232;-89
2022/04/28 07:15:30;;;;;;;16.65;7.78;;;;;;;16.79;45.43;93196.38;4843207;29;20073;-89
2022/04/28 07:18:15;;;;;;;19.23;9.45;;;;;;;17.10;47.95;93206.13;4797906;29;20064;-90
2022/04/28 07:20:44;;;;;;;22.17;8.75;;;;;;;16.68;46.57;93210.97;4793623;29;20047;-88
2022/04/28 07:23:15;;;;;;;19.20;7.93;;;;;;;17.10;45.95;93217.47;4810979;29;20043;-88
2022/04/28 07:25:43;;;;;;;21.90;9.40;;;;;;;16.94;44.86;93198.63;4826349;29;20042;-90
2022/04/28 07:28:40;;;;;;;26.48;12.80;;;;;;;16.60;48.83;93172.84;4799821;29;20044;-89
2022/04/28 07:38:38;;;;;;;30.60;13.93;;;;;;;15.78;54.72;93177.56;4780549;29;20055;-88
2022/04/28 07:41:28;;;;;;;34.75;14.70;;;;;;;14.97;58.58;93200.19;4783525;29;20053;-88
2022/04/28 07:43:54;;;;;;;;;;;;;;;15.41;57.22;93229.59;4793753;29;20038;-89
2022/04/28 07:46:37;;;;;;;27.00;13.30;;;;;;;15.19;56.30;93202.09;4794605;29;19919;-90
2022/04/28 07:49:09;;;;;;;26.38;13.15;;;;;;;15.49;55.63;93176.13;4763823;29;20058;-89
2022/04/28 07:51:50;;;;;;;32.28;13.70;;;;;;;15.19;55.67;93180.22;4778514;29;20043;-89
2022/04/28 07:54:38;;;;;;;22.02;11.07;;;;;;;16.33;52.69;93231.97;4781048;29;20057;-89
2022/04/28 07:57:25;;;;;;;30.60;12.23;;;;;;;14.89;56.51;93198.25;4778655;29;20049;-88
2022/04/28 08:00:16;;;;;;;19.20;8.80;;;;;;;15.48;51.15;93190.38;4794734;29;20041;-89
2022/04/28 08:02:47;;;;;;;23.67;11.45;;;;;;;15.27;54.98;93191.94;4793401;29;20051;-88
2022/04/28 08:05:43;;;;;;;27.13;12.57;;;;;;;15.05;55.77;93185.53;4792614;29;20130;-89
2022/04/28 08:08:16;;;;;;;28.20;12.15;;;;;;;14.20;57.88;93221.91;4764241;29;20047;-89
2022/04/28 08:10:44;;;;;;;22.55;11.05;;;;;;;14.32;56.38;93197.72;4792814;29;20034;-89
2022/04/28 08:13:18;;;;;;;22.88;10.38;;;;;;;14.88;55.26;93206.44;4778581;29;20043;-89
2022/04/28 08:15:50;;;;;;;20.58;8.40;;;;;;;14.64;54.09;93211.94;4792730;29;20504;-89
2022/04/28 08:18:41;;;;;;;19.45;9.00;;;;;;;14.60;52.92;93193.28;4777773;29;20055;-89
2022/04/28 08:21:28;;;;;;;14.07;7.20;;;;;;;14.73;52.98;93195.16;4766722;29;20053;-89
2022/04/28 08:24:03;;;;;;;16.48;7.90;;;;;;;14.86;52.34;93187.50;4777769;29;20618;-89
2022/04/28 08:26:57;;;;;;;15.00;7.20;;;;;;;15.01;51.07;93197.72;4777726;29;20413;-88
2022/04/28 08:29:34;;;;;;;15.63;6.90;;;;;;;15.02;50.89;93223.03;4765917;29;20154;-89
2022/04/28 08:32:32;;;;;;;;;;;;;;;;;;;;;
2022/04/28 08:35:07;;;;;;;15.85;6.90;;;;;;;14.96;49.28;93240.03;4792371;29;20091;-88
2022/04/28 08:37:41;;;;;;;17.45;6.63;;;;;;;14.96;52.21;93211.81;4777909;29;20046;-88
2022/04/28 08:40:13;;;;;;;12.32;6.30;;;;;;;15.32;49.24;93226.88;4763806;29;20058;-89
2022/04/28 08:42:50;;;;;;;12.35;6.00;;;;;;;14.50;49.97;93188.19;4792049;29;20122;-88
2022/04/28 08:48:43;;;;;;;13.80;6.38;;;;;;;14.40;51.35;93196.28;4792030;29;20047;-88
2022/04/28 08:51:25;;;;;;;13.55;6.80;;;;;;;14.69;50.44;93196.78;4778267;29;20042;-89
2022/04/28 08:54:02;;;;;;;21.15;7.72;;;;;;;14.82;50.92;93239.25;4777561;29;20043;-89
2022/04/28 08:56:31;;;;;;;16.67;6.78;;;;;;;14.11;52.45;93192.06;4777932;29;20120;-89
2022/04/28 08:59:19;;;;;;;16.88;7.65;;;;;;;13.84;52.17;93205.94;4787769;29;20467;-88
2022/04/28 09:02:00;;;;;;;12.88;6.80;;;;;;;14.21;52.35;93235.84;4809640;29;20038;-89
2022/04/28 09:08:57;;;;;;;9.30;5.38;;;;;;;14.82;50.08;93218.97;4826110;29;20449;-89
2022/04/28 09:11:53;;;;;;;12.27;5.63;;;;;;;15.13;48.95;93221.75;4810859;29;20567;-89
2022/04/28 09:15:12;;;;;;;19.17;7.50;;;;;;;15.24;49.77;93221.53;4812522;29;20520;-90
2022/04/28 09:17:47;;;;;;;13.98;6.18;;;;;;;14.66;48.96;93200.03;4806973;29;20476;-90
2022/04/28 09:20:25;;;;;;;12.55;7.32;;;;;;;14.97;48.09;93199.41;4777630;29;20444;-89
2022/04/28 09:23:01;;;;;;;17.25;6.82;;;;;;;14.90;48.40;93209.56;4791775;29;20411;-89
2022/04/28 09:25:44;;;;;;;13.93;6.82;;;;;;;14.82;47.67;93187.31;4807099;29;20457;-89
2022/04/28 09:28:22;;;;;;;13.52;5.72;;;;;;;14.76;47.62;93181.38;4806645;29;20125;-88
2022/04/28 09:31:14;;;;;;;10.10;5.72;;;;;;;14.60;47.95;93185.38;4778336;29;20051;-89
2022/04/28 09:34:15;;;;;;;11.88;6.45;;;;;;;15.14;48.33;93183.75;4785987;29;20051;-89
2022/04/28 09:37:05;;;;;;;16.05;6.97;;;;;;;15.41;47.67;93221.69;4807393;29;20049;-90
2022/04/28 09:42:43;;;;;;;9.48;4.80;;;;;;;14.82;47.68;93178.66;4787981;29;20107;-91
2022/04/28 09:45:25;;;;;;;12.52;6.15;;;;;;;14.97;46.46;93180.94;4784652;29;20054;-89
2022/04/28 09:48:06;;;;;;;14.10;6.82;;;;;;;15.44;46.77;93175.44;4796068;29;20053;-90
2022/04/28 09:51:00;;;;;;;13.10;5.95;;;;;;;15.61;47.31;93223.88;4803136;29;20042;-91
2022/04/28 09:53:59;;;;;;;11.45;5.40;;;;;;;15.61;46.14;93192.19;4823244;29;20053;-93
2022/04/28 10:02:45;;;;;;;11.73;5.43;;;;;;;15.73;44.75;93172.44;4790319;29;20043;-89
2022/04/28 10:05:21;;;;;;;13.68;5.55;;;;;;;15.98;44.10;93215.91;4780590;29;20055;-89
2022/04/28 10:07:59;;;;;;;12.15;5.53;;;;;;;15.53;45.00;93161.22;4779704;29;20071;-88
2022/04/28 10:10:48;;;;;;;;;;;;;;;;;;;;;
2022/04/28 10:13:36;;;;;;;12.88;5.80;;;;;;;15.72;44.63;93165.59;4778263;29;20460;-89
2022/04/28 10:16:19;;;;;;;10.10;5.47;;;;;;;16.12;44.69;93165.66;4776166;29;20085;-89
2022/04/28 10:19:10;;;;;;;;;;;;;;;;;;;;;
2022/04/28 10:22:17;;;;;;;9.02;4.00;;;;;;;16.39;42.18;93168.13;4790432;29;20043;-90
2022/04/28 10:34:22;;;;;;;13.55;5.63;;;;;;;16.45;44.05;93182.72;4790024;29;20403;-91
2022/04/28 10:37:02;;;;;;;12.52;6.45;;;;;;;16.23;42.78;93140.53;4802963;29;20065;-91
2022/04/28 10:39:56;;;;;;;;;;;;;;;;;;;;;
2022/04/28 10:42:44;;;;;;;;;;;;;;;;;;;;;
2022/04/28 10:45:28;;;;;;;12.32;5.68;;;;;;;16.78;43.39;93155.94;4807638;29;20058;-91
2022/04/28 10:48:31;;;;;;;11.98;5.85;;;;;;;16.55;43.91;93200.19;4808726;29;20049;-91
2022/04/28 10:51:18;;;;;;;14.48;5.53;;;;;;;16.62;42.76;93197.13;4772215;29;20046;-90
2022/04/28 10:54:09;;;;;;;10.43;4.97;;;;;;;16.24;42.60;93145.53;4790119;29;20038;-91
2022/04/28 10:56:50;;;;;;;12.20;6.35;;;;;;;16.35;43.73;93169.81;4787867;29;20057;-90
2022/04/28 11:00:04;;;;;;;11.30;5.22;;;;;;;16.07;43.29;93190.31;4793466;29;20080;-91
2022/04/28 11:02:23;;;;;;;13.45;5.50;;;;;;;16.72;42.61;93191.53;4804396;29;20085;-90
2022/04/28 11:05:29;;;;;;;9.05;5.13;;;;;;;17.12;43.35;93198.66;4816532;29;20050;-90
2022/04/28 11:08:01;;;;;;;12.18;5.50;;;;;;;16.65;42.13;93188.56;4824060;29;20062;-91
2022/04/28 11:10:39;;;;;;;;;;;;;;;;;;;;;
2022/04/28 11:13:14;;;;;;;11.77;5.13;;;;;;;16.59;42.76;93148.25;4816465;29;20047;-92
2022/04/28 11:15:49;;;;;;;10.25;5.43;;;;;;;16.58;43.13;93164.44;4818994;29;20023;-92
2022/04/28 11:18:43;;;;;;;10.93;4.93;;;;;;;17.46;42.98;93182.81;4813734;29;20065;-92
2022/04/28 11:21:12;;;;;;;12.15;4.93;;;;;;;17.71;40.82;93155.88;4831489;29;20106;-93
2022/04/28 11:23:51;;;;;;;15.57;5.32;;;;;;;17.06;41.44;93131.91;4834430;29;20109;-93
2022/04/28 11:26:46;;;;;;;24.83;5.85;;;;;;;16.98;41.95;93132.69;4789394;29;20057;-92
2022/04/28 11:29:49;;;;;;;27.90;6.25;;;;;;;17.01;41.23;93126.78;4772882;29;20069;-92
2022/04/28 11:32:16;;;;;;;19.17;5.60;;;;;;;17.11;41.33;93133.63;4792968;29;20459;-92
2022/04/28 11:34:48;;;;;;;11.07;5.72;;;;;;;17.05;42.45;93162.88;4810878;29;20038;-90
2022/04/28 11:37:35;;;;;;;;;;;;;;;;;;;;;
2022/04/28 11:40:24;;;;;;;10.15;5.13;;;;;;;16.96;42.03;93156.03;4822586;29;20045;-93
2022/04/28 11:43:10;;;;;;;;;;;;;;;;;;;;;
2022/04/28 11:45:41;;;;;;;9.80;4.43;;;;;;;16.67;41.39;93153.91;4816600;29;20066;-91
2022/04/28 11:48:23;;;;;;;13.20;5.32;;;;;;;16.69;43.70;93126.06;4795911;29;20083;-92
2022/04/28 11:51:00;;;;;;;9.48;4.53;;;;;;;17.19;42.59;93144.19;4790964;29;20104;-93
2022/04/28 11:53:45;;;;;;;10.82;4.68;;;;;;;17.19;41.68;93130.97;4790570;29;20038;-93
2022/04/28 11:56:35;;;;;;;;;;;;;;;;;;;;;
2022/04/28 11:59:15;;;;;;;8.88;4.88;;;;;;;17.36;41.80;93135.50;4809436;29;20046;-93
2022/04/28 12:01:56;;;;;;;12.68;4.78;;;;;;;17.21;41.35;93128.03;4821113;29;20502;-94
2022/04/28 12:04:30;;;;;;;7.35;4.10;;;;;;;16.90;42.03;93115.72;4775641;29;20062;-92
2022/04/28 12:15:34;;;;;;;8.18;4.20;;;;;;;17.37;41.84;93146.84;4812515;29;20091;-94
2022/04/28 12:21:02;;;;;;;10.50;4.00;;;;;;;17.22;41.51;93126.94;4810650;29;20498;-94
2022/04/28 12:23:42;;;;;;;11.48;4.90;;;;;;;17.16;41.68;93110.44;4790865;29;20053;-91
2022/04/28 12:26:19;;;;;;;10.00;4.20;;;;;;;17.09;42.82;93141.88;4795547;29;20250;-92
2022/04/28 12:28:51;;;;;;;;;;;;;;;17.45;42.52;93177.81;4795745;29;20077;-91
2022/04/28 12:31:33;;;;;;;8.73;4.93;;;;;;;17.03;42.09;93124.59;4794029;29;19925;-91
2022/04/28 12:34:20;;;;;;;8.98;4.32;;;;;;;17.02;42.36;93115.09;4811388;29;20042;-91
2022/04/28 12:36:58;;;;;;;7.68;4.20;;;;;;;17.45;41.55;93128.34;4809519;29;20046;-92
2022/04/28 12:40:02;;;;;;;9.82;3.85;;;;;;;17.18;41.60;93155.88;4805284;29;20034;-91
2022/04/28 12:42:57;;;;;;;9.10;4.38;;;;;;;17.31;42.39;93119.00;4806667;29;20049;-91
2022/04/28 12:45:47;;;;;;;9.13;3.78;;;;;;;17.02;42.36;93125.66;4792310;29;20043;-92
2022/04/28 12:48:46;;;;;;;10.38;4.60;;;;;;;17.21;43.10;93160.53;4802534;29;20095;-92
2022/04/28 12:51:34;;;;;;;;;;;;;;;;;;;;;
2022/04/28 12:54:45;;;;;;;9.95;4.75;;;;;;;17.46;42.49;93137.03;4809400;29;20095;-91
2022/04/28 12:57:31;;;;;;;9.50;4.47;;;;;;;17.23;42.42;93126.63;4771479;29;20063;-91
2022/04/28 13:00:06;;;;;;;7.55;4.30;;;;;;;17.22;41.79;93125.06;4791852;29;20126;-92
2022/04/28 13:03:06;;;;;;;;;;;;;;;17.47;41.96;93154.47;4780460;29;20077;-92
2022/04/28 13:05:35;;;;;;;9.07;4.55;;;;;;;16.87;43.84;93097.06;4803164;29;19924;-93
2022/04/28 13:08:30;;;;;;;10.45;4.35;;;;;;;17.51;41.62;93120.22;4796528;29;20134;-92
2022/04/28 13:11:20;;;;;;;10.40;4.60;;;;;;;17.15;42.17;93092.22;4779647;29;20099;-91
2022/04/28 13:13:57;;;;;;;8.93;4.82;;;;;;;16.75;42.50;93090.47;4801809;29;20046;-92
2022/04/28 13:16:33;;;;;;;7.38;4.45;;;;;;;17.01;42.96;93121.47;4802513;29;20043;-93
2022/04/28 13:19:08;;;;;;;7.65;3.90;;;;;;;16.88;42.17;93088.78;4793708;29;20064;-92
2022/04/28 13:22:06;;;;;;;8.52;4.57;;;;;;;17.46;42.35;93142.34;4796289;29;20047;-91
2022/04/28 13:25:18;;;;;;;8.20;4.07;;;;;;;17.17;42.61;93106.69;4794022;29;20047;-91
2022/04/28 13:28:16;;;;;;;;;;;;;;;;;;;;;
2022/04/28 13:33:45;;;;;;;9.05;4.50;;;;;;;17.49;42.08;93104.66;4802365;29;20074;-92
2022/04/28 13:36:41;;;;;;;;;;;;;;;;;;;;;
2022/04/28 13:39:21;;;;;;;7.82;3.92;;;;;;;16.96;42.19;93093.31;4806702;29;20049;-92
2022/04/28 13:42:05;;;;;;;7.30;3.88;;;;;;;17.44;43.11;93091.59;4825603;29;20399;-92
2022/04/28 13:44:40;;;;;;;7.97;4.05;;;;;;;17.35;41.78;93062.47;4794241;29;20034;-91
2022/04/28 13:47:10;;;;;;;13.45;4.30;;;;;;;17.32;41.54;93065.00;4794365;29;20129;-92
2022/04/28 13:49:44;;;;;;;7.63;4.10;;;;;;;17.24;42.88;93080.53;4794516;29;20034;-92
2022/04/28 13:52:53;;;;;;;7.90;4.38;;;;;;;16.79;42.25;93070.28;4785360;29;20054;-92
2022/04/28 13:55:29;;;;;;;11.18;4.63;;;;;;;17.10;43.04;93110.91;4795211;29;20736;-91
2022/04/28 13:58:03;;;;;;;8.23;4.35;;;;;;;17.22;42.47;93058.13;4781249;29;20396;-92
2022/04/28 14:00:49;;;;;;;;;;;;;;;;;;;;;
2022/04/28 14:03:25;;;;;;;;;;;;;;;;;;;;;
2022/04/28 14:06:17;;;;;;;;;;;;;;;;;;;;;
2022/04/28 14:09:02;;;;;;;6.63;3.58;;;;;;;16.89;42.05;93068.41;4822213;29;20051;-90
2022/04/28 14:12:01;;;;;;;8.88;4.90;;;;;;;17.20;43.33;93074.34;4794238;29;20085;-92
2022/04/28 14:14:40;;;;;;;;;;;;;;;;;;;;;
2022/04/28 14:17:34;;;;;;;;;;;;;;;;;;;;;
2022/04/28 14:20:06;;;;;;;8.40;4.05;;;;;;;17.62;42.48;93063.97;4794059;29;20046;-92
2022/04/28 14:22:51;;;;;;;10.50;4.50;;;;;;;17.41;41.85;93026.84;4824537;29;20042;-91
2022/04/28 14:25:27;;;;;;;;;;;;;;;17.87;41.75;93074.84;4793498;29;20057;-92
2022/04/28 14:28:06;;;;;;;8.07;4.68;;;;;;;17.19;42.41;93025.16;4795335;29;19925;-91
2022/04/28 14:30:45;;;;;;;9.88;4.07;;;;;;;16.96;42.44;93005.28;4807501;29;20047;-91
2022/04/28 14:33:21;;;;;;;8.73;4.50;;;;;;;17.27;42.17;93021.72;4809107;29;20049;-91
2022/04/28 14:36:02;;;;;;;7.97;4.05;;;;;;;17.27;41.52;93013.03;4793819;29;20047;-92
2022/04/28 14:38:31;;;;;;;8.82;5.05;;;;;;;17.15;42.27;93055.97;4778555;29;20046;-91
2022/04/28 14:41:20;;;;;;;6.45;3.67;;;;;;;17.45;42.33;93054.22;4825339;29;20030;-92
2022/04/28 14:44:00;;;;;;;;;;;;;;;;;;;;;
2022/04/28 14:46:43;;;;;;;8.32;4.40;;;;;;;16.79;42.32;93035.91;4783035;29;20046;-92
2022/04/28 14:55:17;;;;;;;11.32;4.85;;;;;;;17.18;43.10;93033.41;4823864;29;20381;-93
2022/04/28 14:58:17;;;;;;;8.80;4.28;;;;;;;17.04;42.95;93023.00;4765973;29;20043;-91
2022/04/28 15:01:19;;;;;;;;;;;;;;;;;;;;;
2022/04/28 15:07:38;;;;;;;10.15;4.70;;;;;;;16.83;43.23;93022.84;4773281;29;20053;-92
2022/04/28 15:11:14;;;;;;;9.35;5.10;;;;;;;16.96;43.11;93034.38;4791981;29;20106;-91
2022/04/28 15:14:45;;;;;;;8.75;4.72;;;;;;;16.88;43.22;93024.56;4802559;29;20399;-92
2022/04/28 15:17:51;;;;;;;;;;;;;;;;;;;;;
2022/04/28 15:20:58;;;;;;;9.93;4.65;;;;;;;16.91;43.13;93037.94;4807356;29;20015;-91
2022/04/28 15:23:31;;;;;;;10.07;5.47;;;;;;;17.24;42.92;93075.25;4795129;29;20199;-91
2022/04/28 15:26:08;;;;;;;10.07;5.53;;;;;;;16.39;43.56;93014.88;4790221;29;20046;-92
2022/04/28 15:28:41;;;;;;;7.55;4.18;;;;;;;16.38;43.80;93018.59;4806816;29;20050;-91
2022/04/28 15:31:18;;;;;;;8.50;5.07;;;;;;;16.98;44.13;93074.50;4791918;29;20506;-92
2022/04/28 15:33:54;;;;;;;9.32;5.00;;;;;;;17.08;43.48;93066.25;4806244;29;20450;-92
2022/04/28 15:36:25;;;;;;;9.73;5.00;;;;;;;16.71;43.31;93028.75;4792018;29;20042;-92
2022/04/28 15:39:04;;;;;;;;;;;;;;;;;;;;;
2022/04/28 15:41:50;;;;;;;9.60;4.75;;;;;;;16.83;43.04;93007.75;4805848;29;20042;-91
2022/04/28 15:44:42;;;;;;;12.63;5.55;;;;;;;17.16;43.24;93062.06;4792304;29;20066;-92
2022/04/28 15:47:34;;;;;;;11.23;5.20;;;;;;;16.78;43.43;93034.34;4767718;29;20043;-91
2022/04/28 15:50:08;;;;;;;11.55;5.43;;;;;;;16.66;43.88;93039.44;4764756;29;20058;-92